.
WxDataArchive / Data Records for 2011-11-02
2011-11-01 November 2011 2011-11-03

Data Records for Wednesday, 02 November 2011

Time	Temp	Chill	HIndex	Humid	Dewpt	 Wind 	HiWind	WindDir	Rain 	Barom 
-----	----	-----	------	-----	-----	------	------	-------	-----	----- 
00:00	49.9	49.9	49.9	60	36.6	0	1	68	0.00	30.164 
00:05	49.8	49.8	49.8	60	36.5	0	2	68	0.00	30.164 
00:10	49.6	49.6	49.6	60	36.3	0	0	---	0.00	30.164 
00:15	49.5	49.5	49.5	60	36.2	0	0	---	0.00	30.164 
00:20	49.4	49.4	49.4	60	36.1	0	0	---	0.00	30.164 
00:25	49.2	49.2	49.2	60	35.9	0	1	68	0.00	30.164 
00:30	49.1	49.1	49.1	61	36.2	0	2	68	0.00	30.164 
00:35	49.1	49.1	49.1	61	36.2	0	2	45	0.00	30.164 
00:40	49.1	49.1	49.1	61	36.2	0	2	270	0.00	30.164 
00:45	49.1	49.1	49.1	61	36.2	0	1	270	0.00	30.162 
00:50	49.2	49.2	49.2	60	35.9	0	2	270	0.00	30.162 
00:55	49.2	49.2	49.2	60	35.9	0	2	45	0.00	30.162 
01:00	49.2	49.2	49.2	60	35.9	0	1	225	0.00	30.162 
01:05	49.1	49.1	49.1	60	35.8	0	1	225	0.00	30.162 
01:10	48.9	48.9	48.9	60	35.6	0	1	225	0.00	30.162 
01:15	48.8	48.8	48.8	60	35.5	0	1	225	0.00	30.161 
01:20	48.6	48.6	48.6	60	35.3	0	0	---	0.00	30.161 
01:25	48.3	48.3	48.3	61	35.5	0	0	---	0.00	30.161 
01:30	48.0	48.0	48.0	61	35.2	0	0	---	0.00	30.166 
01:35	47.9	47.9	47.9	62	35.5	0	0	---	0.00	30.166 
01:40	47.6	47.6	47.6	62	35.2	0	0	---	0.00	30.166 
01:45	47.4	47.4	47.4	63	35.4	0	0	---	0.00	30.167 
01:50	47.1	47.1	47.1	64	35.6	0	1	225	0.00	30.167 
01:55	47.0	47.0	47.0	64	35.5	0	0	---	0.00	30.167 
02:00	46.7	46.7	46.7	64	35.2	0	0	---	0.00	30.175 
02:05	46.5	46.5	46.5	64	35.0	0	0	---	0.00	30.175 
02:10	46.4	46.4	46.4	65	35.3	0	0	---	0.00	30.175 
02:15	46.4	46.4	46.4	65	35.3	0	0	---	0.00	30.171 
02:20	46.2	46.2	46.2	65	35.1	0	0	---	0.00	30.171 
02:25	46.2	46.2	46.2	65	35.1	0	0	---	0.00	30.171 
02:30	46.2	46.2	46.2	65	35.1	0	0	---	0.00	30.171 
02:35	46.1	46.1	46.1	65	35.0	0	0	---	0.00	30.171 
02:40	46.0	46.0	46.0	65	34.9	0	0	---	0.00	30.171 
02:45	45.8	45.8	45.8	65	34.7	0	0	---	0.00	30.169 
02:50	45.8	45.8	45.8	66	35.1	0	0	---	0.00	30.169 
02:55	45.7	45.7	45.7	66	35.0	0	0	---	0.00	30.169 
03:00	45.4	45.4	45.4	67	35.1	0	0	---	0.00	30.168 
03:05	45.1	45.1	45.1	67	34.8	0	0	---	0.00	30.168 
03:10	44.8	44.8	44.8	68	34.9	0	0	---	0.00	30.168 
03:15	44.3	44.3	44.3	69	34.8	0	0	---	0.00	30.170 
03:20	44.1	44.1	44.1	69	34.6	0	0	---	0.00	30.170 
03:25	43.9	43.9	43.9	70	34.8	0	0	---	0.00	30.170 
03:30	43.6	43.6	43.6	71	34.8	0	0	---	0.00	30.175 
03:35	43.5	43.5	43.5	71	34.7	0	0	---	0.00	30.175 
03:40	43.3	43.3	43.3	72	34.9	0	0	---	0.00	30.175 
03:45	43.5	43.5	43.5	71	34.7	0	1	225	0.00	30.173 
03:50	43.6	43.6	43.6	71	34.8	0	0	---	0.00	30.173 
03:55	43.8	43.8	43.8	71	35.0	0	0	---	0.00	30.173 
04:00	43.8	43.8	43.8	70	34.7	0	0	---	0.00	30.176 
04:05	43.8	43.8	43.8	70	34.7	0	0	---	0.00	30.176 
04:10	43.8	43.8	43.8	70	34.7	0	0	---	0.00	30.176 
04:15	43.9	43.9	43.9	71	35.1	0	0	---	0.00	30.179 
04:20	43.8	43.8	43.8	70	34.7	0	0	---	0.00	30.179 
04:25	43.6	43.6	43.6	71	34.8	0	0	---	0.00	30.179 
04:30	43.5	43.5	43.5	71	34.7	0	0	---	0.00	30.181 
04:35	43.2	43.2	43.2	72	34.8	0	0	---	0.00	30.181 
04:40	43.1	43.1	43.1	72	34.7	0	0	---	0.00	30.181 
04:45	42.8	42.8	42.8	72	34.4	0	0	---	0.00	30.183 
04:50	42.8	42.8	42.8	73	34.8	0	0	---	0.00	30.183 
04:55	42.8	42.8	42.8	73	34.8	0	0	---	0.00	30.183 
05:00	42.9	42.9	42.9	73	34.9	0	0	---	0.00	30.191 
05:05	43.1	43.1	43.1	72	34.7	0	0	---	0.00	30.191 
05:10	43.2	43.2	43.2	72	34.8	0	1	225	0.00	30.191 
05:15	43.3	43.3	43.3	72	34.9	0	0	---	0.00	30.191 
05:20	43.5	43.5	43.5	71	34.7	0	0	---	0.00	30.191 
05:25	43.6	43.6	43.6	71	34.8	0	0	---	0.00	30.191 
05:30	43.6	43.6	43.6	71	34.8	0	0	---	0.00	30.184 
05:35	43.6	43.6	43.6	71	34.8	0	1	225	0.00	30.184 
05:40	43.6	43.6	43.6	70	34.5	0	0	---	0.00	30.184 
05:45	43.6	43.6	43.6	70	34.5	0	0	---	0.00	30.190 
05:50	43.6	43.6	43.6	70	34.5	0	0	---	0.00	30.190 
05:55	43.6	43.6	43.6	70	34.5	0	0	---	0.00	30.190 
06:00	43.6	43.6	43.6	70	34.5	0	0	---	0.00	30.191 
06:05	43.6	43.6	43.6	70	34.5	0	0	---	0.00	30.191 
06:10	43.6	43.6	43.6	70	34.5	0	0	---	0.00	30.191 
06:15	43.5	43.5	43.5	70	34.4	0	0	---	0.00	30.196 
06:20	43.3	43.3	43.3	70	34.2	0	0	---	0.00	30.196 
06:25	43.3	43.3	43.3	70	34.2	0	0	---	0.00	30.196 
06:30	43.2	43.2	43.2	70	34.1	0	0	---	0.00	30.199 
06:35	43.2	43.2	43.2	70	34.1	0	0	---	0.00	30.199 
06:40	43.3	43.3	43.3	70	34.2	0	0	---	0.00	30.199 
06:45	43.5	43.5	43.5	70	34.4	0	0	---	0.00	30.195 
06:50	43.6	43.6	43.6	70	34.5	0	0	---	0.00	30.195 
06:55	43.6	43.6	43.6	69	34.1	0	0	---	0.00	30.195 
07:00	43.6	43.6	43.6	69	34.1	0	0	---	0.00	30.196 
07:05	43.6	43.6	43.6	69	34.1	0	0	---	0.00	30.196 
07:10	43.6	43.6	43.6	69	34.1	0	0	---	0.00	30.196 
07:15	43.6	43.6	43.6	69	34.1	0	0	---	0.00	30.200 
07:20	43.6	43.6	43.6	69	34.1	0	0	---	0.00	30.200 
07:25	43.5	43.5	43.5	69	34.0	0	0	---	0.00	30.200 
07:30	43.5	43.5	43.5	69	34.0	0	0	---	0.00	30.199 
07:35	43.5	43.5	43.5	69	34.0	0	0	---	0.00	30.199 
07:40	43.3	43.3	43.3	69	33.8	0	0	---	0.00	30.199 
07:45	43.2	43.2	43.2	70	34.1	0	0	---	0.00	30.197 
07:50	43.2	43.2	43.2	70	34.1	0	1	225	0.00	30.197 
07:55	43.3	43.3	43.3	70	34.2	0	0	---	0.00	30.197 
08:00	43.3	43.3	43.3	70	34.2	0	1	225	0.00	30.195 
08:05	43.3	43.3	43.3	70	34.2	0	0	---	0.00	30.195 
08:10	43.3	43.3	43.3	70	34.2	0	1	225	0.00	30.195 
08:15	43.3	43.3	43.3	70	34.2	0	0	---	0.00	30.200 
08:20	43.5	43.5	43.5	70	34.4	0	1	225	0.00	30.200 
08:25	43.6	43.6	43.6	70	34.5	0	0	---	0.00	30.200 
08:30	43.9	43.9	43.9	69	34.4	0	2	225	0.00	30.206 
08:35	44.2	44.2	44.2	69	34.7	0	1	225	0.00	30.206 
08:40	44.3	44.3	44.3	68	34.4	0	0	---	0.00	30.206 
08:45	44.5	44.5	44.5	68	34.6	0	1	225	0.00	30.200 
08:50	44.5	44.5	44.5	68	34.6	0	0	---	0.00	30.200 
08:55	44.8	44.8	44.8	68	34.9	0	0	---	0.00	30.200 
09:00	45.1	45.1	45.1	67	34.8	0	0	---	0.00	30.203 
09:05	45.4	45.4	45.4	67	35.1	0	1	225	0.00	30.203 
09:10	45.8	45.8	45.8	66	35.1	0	2	225	0.00	30.203 
09:15	46.4	46.4	46.4	66	35.7	0	1	225	0.00	30.201 
09:20	46.8	46.8	46.8	65	35.7	0	1	225	0.00	30.201 
09:25	47.4	47.4	47.4	63	35.4	0	2	225	0.00	30.201 
09:30	48.2	48.2	48.2	61	35.4	1	3	248	0.00	30.198 
09:35	48.9	48.9	48.9	58	34.8	1	3	248	0.00	30.198 
09:40	49.4	49.4	49.4	57	34.8	1	4	248	0.00	30.198 
09:45	49.8	49.8	49.8	57	35.2	1	3	248	0.00	30.197 
09:50	49.9	49.9	49.9	56	34.8	0	4	248	0.00	30.197 
09:55	50.1	50.1	50.1	56	35.0	0	2	248	0.00	30.197 
10:00	50.2	50.2	50.2	56	35.1	1	3	248	0.00	30.195 
10:05	50.4	50.4	50.4	56	35.3	0	2	248	0.00	30.195 
10:10	50.7	50.7	50.7	56	35.6	0	4	248	0.00	30.195 
10:15	51.0	51.0	51.0	56	35.9	0	5	248	0.00	30.188 
10:20	51.4	51.4	51.4	54	35.3	1	5	248	0.00	30.188 
10:25	51.9	51.9	51.9	54	35.8	1	3	292	0.00	30.188 
10:30	52.3	52.3	52.3	53	35.7	1	3	248	0.00	30.186 
10:35	52.9	52.9	52.9	51	35.3	0	2	90	0.00	30.186 
10:40	53.5	53.5	53.5	52	36.3	0	3	90	0.00	30.186 
10:45	54.1	54.1	54.1	50	35.9	1	5	90	0.00	30.179 
10:50	54.5	54.5	54.5	50	36.2	0	3	248	0.00	30.179 
10:55	54.7	54.7	54.7	50	36.4	0	2	248	0.00	30.179 
11:00	54.8	54.8	54.8	47	35.0	1	4	248	0.00	30.181 
11:05	55.0	55.0	55.0	48	35.7	1	3	248	0.00	30.181 
11:10	55.3	55.3	55.3	48	35.9	0	3	225	0.00	30.181 
11:15	55.4	55.4	55.4	49	36.6	1	3	90	0.00	30.178 
11:20	55.6	55.6	55.6	47	35.7	1	4	270	0.00	30.178 
11:25	55.6	55.6	55.6	47	35.7	1	3	270	0.00	30.178 
11:30	55.7	55.7	55.7	48	36.3	0	4	112	0.00	30.175 
11:35	55.7	55.7	55.7	48	36.3	0	3	248	0.00	30.175 
11:40	56.0	56.0	56.0	47	36.1	1	4	248	0.00	30.175 
11:45	56.3	56.3	56.3	48	36.9	1	4	248	0.00	30.173 
11:50	56.9	56.9	56.9	47	36.9	1	4	248	0.00	30.173 
11:55	57.3	57.3	57.3	46	36.7	1	5	248	0.00	30.173 
12:00	57.6	57.6	57.6	46	37.0	1	2	225	0.00	30.169 
12:05	58.3	58.3	58.3	47	38.2	0	2	225	0.00	30.169 
12:10	58.6	58.6	58.6	44	36.8	1	5	270	0.00	30.169 
12:15	59.0	59.0	59.0	44	37.1	1	4	292	0.00	30.162 
12:20	59.5	59.5	59.5	44	37.6	1	4	248	0.00	30.162 
12:25	59.8	59.8	59.8	45	38.4	1	3	292	0.00	30.162 
12:30	60.1	60.1	60.1	43	37.5	2	9	248	0.00	30.147 
12:35	60.4	60.4	60.4	43	37.8	2	5	270	0.00	30.147 
12:40	60.7	60.7	60.7	44	38.7	1	3	270	0.00	30.147 
12:45	61.0	61.0	61.0	42	37.7	1	3	270	0.00	30.139 
12:50	61.2	61.2	61.2	41	37.3	2	10	248	0.00	30.139 
12:55	61.6	61.6	61.6	43	38.9	1	4	270	0.00	30.139 
13:00	62.0	62.0	62.0	42	38.6	1	4	270	0.00	30.132 
13:05	62.3	62.3	62.3	40	37.7	2	7	270	0.00	30.132 
13:10	62.4	62.4	62.4	41	38.4	1	5	270	0.00	30.132 
13:15	62.6	62.6	62.6	42	39.2	1	4	270	0.00	30.126 
13:20	62.6	62.6	62.6	41	38.6	2	5	248	0.00	30.126 
13:25	62.6	62.6	62.6	40	37.9	2	6	270	0.00	30.126 
13:30	62.9	62.9	62.9	42	39.5	2	6	248	0.00	30.117 
13:35	63.4	63.4	63.4	39	38.0	2	7	270	0.00	30.117 
13:40	63.5	63.5	63.5	39	38.1	2	11	248	0.00	30.117 
13:45	63.7	63.7	63.7	42	40.2	1	5	248	0.00	30.108 
13:50	63.9	63.9	63.9	39	38.5	2	5	248	0.00	30.108 
13:55	64.0	64.0	64.0	40	39.2	1	4	225	0.00	30.108 
14:00	64.3	64.3	64.3	40	39.5	2	5	270	0.00	30.099 
14:05	64.3	64.3	64.3	39	38.8	1	5	248	0.00	30.099 
14:10	64.5	64.5	64.5	38	38.3	2	6	248	0.00	30.099 
14:15	64.5	64.5	64.5	38	38.3	2	7	248	0.00	30.093 
14:20	64.7	64.7	64.7	38	38.5	3	6	248	0.00	30.093 
14:25	64.8	64.8	64.8	39	39.3	1	4	248	0.00	30.093 
14:30	65.0	65.0	65.0	39	39.4	1	4	90	0.00	30.088 
14:35	65.3	65.3	65.3	39	39.7	2	6	248	0.00	30.088 
14:40	65.5	65.5	65.5	38	39.2	2	6	248	0.00	30.088 
14:45	65.3	65.3	65.3	38	39.0	2	5	270	0.00	30.089 
14:50	65.3	65.3	65.3	38	39.0	2	5	248	0.00	30.089 
14:55	65.2	65.2	65.2	39	39.6	2	6	248	0.00	30.089 
15:00	65.0	65.0	65.0	39	39.4	2	5	248	0.00	30.078 
15:05	65.0	65.0	65.0	38	38.8	2	7	270	0.00	30.078 
15:10	65.2	65.2	65.2	39	39.6	2	7	248	0.00	30.078 
15:15	65.3	65.3	65.3	38	39.0	1	4	225	0.00	30.072 
15:20	65.3	65.3	65.3	38	39.0	2	5	225	0.00	30.072 
15:25	65.5	65.5	65.5	39	39.9	1	5	248	0.00	30.072 
15:30	65.5	65.5	65.5	39	39.9	1	4	338	0.00	30.071 
15:35	65.3	65.3	65.3	39	39.7	1	6	248	0.00	30.071 
15:40	65.3	65.3	65.3	39	39.7	2	7	248	0.00	30.071 
15:45	65.5	65.5	65.5	39	39.9	2	9	248	0.00	30.072 
15:50	65.5	65.5	65.5	39	39.9	2	6	270	0.00	30.072 
15:55	65.6	65.6	65.6	38	39.3	2	4	248	0.00	30.072 
16:00	65.8	65.8	65.8	40	40.8	1	4	270	0.00	30.064 
16:05	66.0	66.0	66.0	37	39.0	2	4	248	0.00	30.064 
16:10	66.0	66.0	66.0	38	39.7	1	5	248	0.00	30.064 
16:15	66.0	66.0	66.0	39	40.3	1	4	248	0.00	30.061 
16:20	65.8	65.8	65.8	38	39.5	1	5	248	0.00	30.061 
16:25	65.5	65.5	65.5	39	39.9	1	5	135	0.00	30.061 
16:30	65.3	65.3	65.3	40	40.4	1	7	45	0.00	30.055 
16:35	65.0	65.0	65.0	39	39.4	1	4	248	0.00	30.055 
16:40	64.8	64.8	64.8	40	39.9	1	4	45	0.00	30.055 
16:45	64.7	64.7	64.7	41	40.5	1	4	315	0.00	30.057 
16:50	64.5	64.5	64.5	41	40.3	1	3	0	0.00	30.057 
16:55	64.5	64.5	64.5	41	40.3	1	6	225	0.00	30.057 
17:00	64.3	64.3	64.3	41	40.1	1	4	90	0.00	30.051 
17:05	64.2	64.2	64.2	42	40.6	0	2	90	0.00	30.051 
17:10	64.0	64.0	64.0	41	39.8	0	5	90	0.00	30.051 
17:15	63.9	63.9	63.9	41	39.7	1	3	292	0.00	30.047 
17:20	63.5	63.5	63.5	41	39.4	1	5	225	0.00	30.047 
17:25	63.5	63.5	63.5	41	39.4	1	3	248	0.00	30.047 
17:30	63.7	63.7	63.7	40	38.9	0	2	270	0.00	30.055 
17:35	63.7	63.7	63.7	41	39.6	0	3	202	0.00	30.055 
17:40	63.4	63.4	63.4	41	39.3	0	3	158	0.00	30.055 
17:45	63.2	63.2	63.2	41	39.1	1	3	112	0.00	30.044 
17:50	63.1	63.1	63.1	42	39.6	0	1	112	0.00	30.044 
17:55	62.9	62.9	62.9	43	40.1	0	0	---	0.00	30.044 
18:00	62.6	62.6	62.6	43	39.8	0	1	112	0.00	30.046 
18:05	62.3	62.3	62.3	43	39.5	0	2	112	0.00	30.046 
18:10	62.1	62.1	62.1	44	39.9	0	3	68	0.00	30.046 
18:15	62.0	62.0	62.0	43	39.2	0	2	68	0.00	30.040 
18:20	61.8	61.8	61.8	43	39.1	0	3	68	0.00	30.040 
18:25	61.8	61.8	61.8	44	39.7	0	2	68	0.00	30.040 
18:30	61.6	61.6	61.6	44	39.5	0	1	68	0.00	30.036 
18:35	61.3	61.3	61.3	45	39.8	0	1	68	0.00	30.036 
18:40	61.0	61.0	61.0	46	40.1	0	0	---	0.00	30.036 
18:45	60.7	60.7	60.7	46	39.8	0	2	68	0.00	30.046 
18:50	60.4	60.4	60.4	46	39.5	0	1	68	0.00	30.046 
18:55	60.4	60.4	60.4	46	39.5	0	2	68	0.00	30.046 
19:00	60.2	60.2	60.2	46	39.3	0	1	315	0.00	30.040 
19:05	60.2	60.2	60.2	46	39.3	0	2	270	0.00	30.040 
19:10	60.2	60.2	60.2	46	39.3	0	3	248	0.00	30.040 
19:15	60.2	60.2	60.2	45	38.8	0	4	248	0.00	30.068 
19:20	60.2	60.2	60.2	46	39.3	0	4	248	0.00	30.068 
19:25	60.1	60.1	60.1	46	39.2	0	2	202	0.00	30.068 
19:30	60.1	60.1	60.1	46	39.2	0	2	202	0.00	30.064 
19:35	59.9	59.9	59.9	46	39.1	0	2	202	0.00	30.064 
19:40	59.8	59.8	59.8	46	39.0	0	1	202	0.00	30.064 
19:45	59.6	59.6	59.6	46	38.8	0	2	202	0.00	30.071 
19:50	59.5	59.5	59.5	47	39.3	0	1	202	0.00	30.071 
19:55	59.3	59.3	59.3	48	39.6	0	1	202	0.00	30.071 
20:00	58.9	58.9	58.9	48	39.2	0	1	202	0.00	30.063 
20:05	58.7	58.7	58.7	48	39.1	0	2	180	0.00	30.063 
20:10	58.6	58.6	58.6	49	39.5	0	1	180	0.00	30.063 
20:15	58.3	58.3	58.3	50	39.7	0	1	180	0.00	30.059 
20:20	58.0	58.0	58.0	50	39.5	0	1	180	0.00	30.059 
20:25	57.8	57.8	57.8	51	39.8	0	1	180	0.00	30.059 
20:30	57.6	57.6	57.6	51	39.6	0	1	180	0.00	30.063 
20:35	57.6	57.6	57.6	51	39.6	0	3	180	0.00	30.063 
20:40	57.5	57.5	57.5	51	39.5	0	1	248	0.00	30.063 
20:45	57.5	57.5	57.5	52	40.0	0	1	248	0.00	30.055 
20:50	57.3	57.3	57.3	52	39.8	0	1	248	0.00	30.055 
20:55	57.5	57.5	57.5	52	40.0	0	2	248	0.00	30.055 
21:00	57.5	57.5	57.5	52	40.0	0	2	248	0.00	30.055 
21:05	57.5	57.5	57.5	52	40.0	0	2	270	0.00	30.055 
21:10	57.6	57.6	57.6	50	39.1	1	3	315	0.00	30.055 
21:15	57.8	57.8	57.8	51	39.8	0	2	315	0.00	30.042 
21:20	57.6	57.6	57.6	52	40.1	0	2	248	0.00	30.042 
21:25	57.6	57.6	57.6	52	40.1	0	3	248	0.00	30.042 
21:30	57.5	57.5	57.5	52	40.0	0	3	248	0.00	30.036 
21:35	57.5	57.5	57.5	52	40.0	0	3	248	0.00	30.036 
21:40	57.5	57.5	57.5	52	40.0	0	1	270	0.00	30.036 
21:45	57.3	57.3	57.3	52	39.8	0	2	270	0.00	30.032 
21:50	57.3	57.3	57.3	52	39.8	0	4	248	0.00	30.032 
21:55	57.3	57.3	57.3	52	39.8	0	3	248	0.00	30.032 
22:00	57.3	57.3	57.3	52	39.8	0	3	338	0.00	30.032 
22:05	57.3	57.3	57.3	52	39.8	0	2	248	0.00	30.032 
22:10	57.2	57.2	57.2	52	39.7	0	1	248	0.00	30.032 
22:15	57.2	57.2	57.2	52	39.7	0	3	292	0.00	30.015 
22:20	57.3	57.3	57.3	52	39.8	0	3	292	0.00	30.015 
22:25	57.3	57.3	57.3	52	39.8	1	4	270	0.00	30.015 
22:30	57.3	57.3	57.3	52	39.8	1	3	225	0.00	30.013 
22:35	57.3	57.3	57.3	52	39.8	0	1	248	0.00	30.013 
22:40	57.3	57.3	57.3	52	39.8	0	2	248	0.00	30.013 
22:45	57.2	57.2	57.2	52	39.7	1	5	248	0.00	30.020 
22:50	57.2	57.2	57.2	52	39.7	0	4	225	0.00	30.020 
22:55	57.0	57.0	57.0	52	39.5	0	6	0	0.00	30.020 
23:00	56.9	56.9	56.9	52	39.5	1	3	270	0.00	30.022 
23:05	56.9	56.9	56.9	52	39.5	1	3	248	0.00	30.022 
23:10	56.9	56.9	56.9	53	39.9	0	3	270	0.00	30.022 
23:15	56.7	56.7	56.7	53	39.8	0	3	225	0.00	30.014 
23:20	56.5	56.5	56.5	53	39.6	0	2	225	0.00	30.014 
23:25	56.3	56.3	56.3	54	39.9	0	2	225	0.00	30.014 
23:30	56.3	56.3	56.3	54	39.9	1	2	225	0.00	30.013 
23:35	56.3	56.3	56.3	54	39.9	0	2	270	0.00	30.013 
23:40	56.2	56.2	56.2	54	39.8	0	1	270	0.00	30.013 
23:45	56.0	56.0	56.0	54	39.6	0	1	270	0.00	30.014 
23:50	55.9	55.9	55.9	55	40.0	0	2	292	0.00	30.014 
23:55	55.7	55.7	55.7	55	39.8	0	1	292	0.00	30.014 

CoCoRaHS
IN-AL-39
A2 Web Hosting
Creative Commons License
GoDaddy
search engine by freefind advanced

loaded 2018-11-17 11:52:18 • last modified 2010-11-18 10:43:29
Privacy PolicyDisclaimer
• wx.awcolley.com is powered by PmWiki v.2002016 •
• all content (unless otherwise noted) © 2018 A W Colley